Etusivu
METAR-TAF:

METAR-TAF

Lentoasemat :

Cape May County Airport

Wildwood, New Jersey, Yhdysvallat

Leveyspiiri: 39-01N, Pituuspiiri: 074-55W, korkeus merenpinnasta: 7 m

Tämänhetkinen sää

Tämä raportti tehtiin 1 tunti ja 1 minuuttia sitten, kello 15.56 UTC
Tuuli 11 kn lännestä puuskistuen 16 kn:hen
Lämpötila 28°C
Kosteus 55%
Ilmanpaine 1006 hPa
Näkyvyys: 16.1 km
selkeää

METAR: KWWD 031556Z AUTO 26011G16KT 10SM CLR 28/18 A2972 RMK AO2 SLP065 T02830178

Aika: 12:57 (16:57 UTC)


TAF: puuttuu

Säähavainnot ja -ennusteet yli 4000 lentoasemalta (METAR- ja TAF-raportit).

Käytössä olevat sääasemat on merkitty karttaan keltaisilla ja punaisilla pisteillä.

Aseta hiiri pisteen päälle nähdäksesi sääaseman nimen.

Klikkaa sitten nähdäksesi säähavainnot ja -ennusteet.

Kartan vaihtaminen: klikkaa mustalla rastilla varustettuja vihreitä pisteitä, niin voit zoomata sisään; viivalla varustettua vihreää pistettä, niin voit zoomata ulos tai vihreitä nuolia, niin pääset viereisille kartoille.


METAR-TAF: